sensor_id;sensor_type;location;lat;lon;timestamp;pressure;altitude;pressure_sealevel;temperature;humidity
49999;BME280;68071;45.062;7.356;2023-05-21T00:02:16;95003.13;;;10.56;100.00
49999;BME280;68071;45.062;7.356;2023-05-21T00:05:21;94985.75;;;10.55;100.00
49999;BME280;68071;45.062;7.356;2023-05-21T00:08:24;94990.88;;;10.57;100.00
49999;BME280;68071;45.062;7.356;2023-05-21T00:11:29;94987.69;;;10.58;100.00
49999;BME280;68071;45.062;7.356;2023-05-21T00:14:34;94993.22;;;10.58;100.00
49999;BME280;68071;45.062;7.356;2023-05-21T00:17:38;94993.22;;;10.58;100.00
49999;BME280;68071;45.062;7.356;2023-05-21T00:20:42;94988.13;;;10.53;100.00
49999;BME280;68071;45.062;7.356;2023-05-21T00:23:48;94979.91;;;10.81;100.00
49999;BME280;68071;45.062;7.356;2023-05-21T00:26:53;94988.59;;;10.83;100.00
49999;BME280;68071;45.062;7.356;2023-05-21T00:29:56;94987.75;;;10.86;100.00
49999;BME280;68071;45.062;7.356;2023-05-21T00:33:00;94986.06;;;10.61;100.00
49999;BME280;68071;45.062;7.356;2023-05-21T00:36:05;94977.13;;;10.50;100.00
49999;BME280;68071;45.062;7.356;2023-05-21T00:39:09;94979.13;;;10.49;100.00
49999;BME280;68071;45.062;7.356;2023-05-21T00:42:14;94979.06;;;10.53;100.00
49999;BME280;68071;45.062;7.356;2023-05-21T00:45:21;94980.22;;;10.55;100.00
49999;BME280;68071;45.062;7.356;2023-05-21T00:48:28;94982.97;;;10.55;100.00
49999;BME280;68071;45.062;7.356;2023-05-21T00:51:32;94981.00;;;10.56;100.00
49999;BME280;68071;45.062;7.356;2023-05-21T00:54:37;94973.06;;;10.62;100.00
49999;BME280;68071;45.062;7.356;2023-05-21T00:57:41;94969.97;;;10.56;100.00
49999;BME280;68071;45.062;7.356;2023-05-21T01:00:45;94969.97;;;10.52;100.00
49999;BME280;68071;45.062;7.356;2023-05-21T01:03:49;94965.88;;;10.68;100.00
49999;BME280;68071;45.062;7.356;2023-05-21T01:06:54;94966.16;;;10.77;100.00
49999;BME280;68071;45.062;7.356;2023-05-21T01:10:03;94960.88;;;10.55;100.00
49999;BME280;68071;45.062;7.356;2023-05-21T01:13:08;94961.66;;;10.56;100.00
49999;BME280;68071;45.062;7.356;2023-05-21T01:16:12;94954.94;;;10.57;100.00
49999;BME280;68071;45.062;7.356;2023-05-21T01:19:21;94954.47;;;10.62;100.00
49999;BME280;68071;45.062;7.356;2023-05-21T01:22:30;94957.97;;;10.66;100.00
49999;BME280;68071;45.062;7.356;2023-05-21T01:25:35;94962.31;;;10.67;100.00
49999;BME280;68071;45.062;7.356;2023-05-21T01:28:39;94959.19;;;10.65;100.00
49999;BME280;68071;45.062;7.356;2023-05-21T01:35:25;94958.03;;;10.63;100.00
49999;BME280;68071;45.062;7.356;2023-05-21T01:41:57;94955.31;;;10.59;100.00
49999;BME280;68071;45.062;7.356;2023-05-21T01:45:03;94960.47;;;10.57;100.00
49999;BME280;68071;45.062;7.356;2023-05-21T01:48:11;94954.56;;;10.55;100.00
49999;BME280;68071;45.062;7.356;2023-05-21T01:51:15;94947.06;;;10.55;100.00
49999;BME280;68071;45.062;7.356;2023-05-21T01:54:20;94944.28;;;10.55;100.00
49999;BME280;68071;45.062;7.356;2023-05-21T01:57:25;94943.53;;;10.55;100.00
49999;BME280;68071;45.062;7.356;2023-05-21T02:00:29;94938.31;;;10.61;100.00
49999;BME280;68071;45.062;7.356;2023-05-21T02:03:35;94933.59;;;10.92;100.00
49999;BME280;68071;45.062;7.356;2023-05-21T02:06:39;94936.53;;;10.78;100.00
49999;BME280;68071;45.062;7.356;2023-05-21T02:09:44;94929.56;;;10.66;100.00
49999;BME280;68071;45.062;7.356;2023-05-21T02:12:48;94930.03;;;10.61;100.00
49999;BME280;68071;45.062;7.356;2023-05-21T02:15:53;94930.44;;;10.59;100.00
49999;BME280;68071;45.062;7.356;2023-05-21T02:18:58;94922.16;;;10.59;100.00
49999;BME280;68071;45.062;7.356;2023-05-21T02:22:03;94928.47;;;10.59;100.00
49999;BME280;68071;45.062;7.356;2023-05-21T02:25:08;94927.50;;;10.73;100.00
49999;BME280;68071;45.062;7.356;2023-05-21T02:28:12;94914.28;;;10.57;100.00
49999;BME280;68071;45.062;7.356;2023-05-21T02:31:17;94922.19;;;10.55;100.00
49999;BME280;68071;45.062;7.356;2023-05-21T02:34:21;94921.78;;;10.57;100.00
49999;BME280;68071;45.062;7.356;2023-05-21T02:37:25;94909.53;;;10.58;100.00
49999;BME280;68071;45.062;7.356;2023-05-21T02:40:30;94909.13;;;10.59;100.00
49999;BME280;68071;45.062;7.356;2023-05-21T02:43:35;94901.66;;;10.56;100.00
49999;BME280;68071;45.062;7.356;2023-05-21T02:46:40;94900.44;;;10.57;100.00
49999;BME280;68071;45.062;7.356;2023-05-21T02:49:45;94915.00;;;10.62;100.00
49999;BME280;68071;45.062;7.356;2023-05-21T02:52:50;94907.13;;;10.60;100.00
49999;BME280;68071;45.062;7.356;2023-05-21T02:55:55;94908.47;;;10.79;100.00
49999;BME280;68071;45.062;7.356;2023-05-21T03:03:43;94915.00;;;10.93;100.00
49999;BME280;68071;45.062;7.356;2023-05-21T03:06:48;94912.50;;;10.71;100.00
49999;BME280;68071;45.062;7.356;2023-05-21T03:09:54;94927.06;;;10.75;100.00
49999;BME280;68071;45.062;7.356;2023-05-21T03:17:09;94910.31;;;10.58;100.00
49999;BME280;68071;45.062;7.356;2023-05-21T03:20:16;94910.63;;;10.64;100.00
49999;BME280;68071;45.062;7.356;2023-05-21T03:23:21;94900.53;;;10.81;100.00
49999;BME280;68071;45.062;7.356;2023-05-21T03:26:25;94903.25;;;10.85;100.00
49999;BME280;68071;45.062;7.356;2023-05-21T03:29:30;94921.06;;;11.11;100.00
49999;BME280;68071;45.062;7.356;2023-05-21T03:32:34;94924.72;;;11.04;100.00
49999;BME280;68071;45.062;7.356;2023-05-21T03:35:41;94909.28;;;10.76;100.00
49999;BME280;68071;45.062;7.356;2023-05-21T03:38:45;94912.34;;;10.85;100.00
49999;BME280;68071;45.062;7.356;2023-05-21T03:41:49;94905.56;;;10.90;100.00
49999;BME280;68071;45.062;7.356;2023-05-21T03:45:01;94912.13;;;11.00;100.00
49999;BME280;68071;45.062;7.356;2023-05-21T03:48:36;94908.47;;;10.79;100.00
49999;BME280;68071;45.062;7.356;2023-05-21T03:51:40;94903.09;;;10.68;100.00
49999;BME280;68071;45.062;7.356;2023-05-21T03:54:50;94903.09;;;10.68;100.00
49999;BME280;68071;45.062;7.356;2023-05-21T03:57:54;94908.19;;;10.70;100.00
49999;BME280;68071;45.062;7.356;2023-05-21T04:00:59;94913.63;;;10.77;100.00
49999;BME280;68071;45.062;7.356;2023-05-21T04:04:06;94914.81;;;10.76;100.00
49999;BME280;68071;45.062;7.356;2023-05-21T04:07:10;94914.59;;;10.63;100.00
49999;BME280;68071;45.062;7.356;2023-05-21T04:10:18;94923.69;;;10.64;100.00
49999;BME280;68071;45.062;7.356;2023-05-21T04:13:22;94924.75;;;10.70;100.00
49999;BME280;68071;45.062;7.356;2023-05-21T04:16:26;94928.72;;;10.69;100.00
49999;BME280;68071;45.062;7.356;2023-05-21T04:19:33;94929.91;;;10.71;100.00
49999;BME280;68071;45.062;7.356;2023-05-21T04:22:38;94936.63;;;10.70;100.00
49999;BME280;68071;45.062;7.356;2023-05-21T04:25:43;94930.34;;;10.66;100.00
49999;BME280;68071;45.062;7.356;2023-05-21T04:28:46;94929.91;;;10.71;100.00
49999;BME280;68071;45.062;7.356;2023-05-21T04:31:51;94931.09;;;10.70;100.00
49999;BME280;68071;45.062;7.356;2023-05-21T04:34:55;94929.47;;;10.73;100.00
49999;BME280;68071;45.062;7.356;2023-05-21T04:38:00;94933.28;;;10.86;100.00
49999;BME280;68071;45.062;7.356;2023-05-21T04:41:04;94933.59;;;10.88;100.00
49999;BME280;68071;45.062;7.356;2023-05-21T04:44:10;94935.53;;;10.92;100.00
49999;BME280;68071;45.062;7.356;2023-05-21T04:47:18;94933.53;;;10.96;100.00
49999;BME280;68071;45.062;7.356;2023-05-21T04:50:22;94928.56;;;10.83;100.00
49999;BME280;68071;45.062;7.356;2023-05-21T04:53:27;94943.84;;;10.92;100.00
49999;BME280;68071;45.062;7.356;2023-05-21T04:56:32;94930.84;;;10.88;100.00
49999;BME280;68071;45.062;7.356;2023-05-21T04:59:36;94938.31;;;10.92;100.00
49999;BME280;68071;45.062;7.356;2023-05-21T05:02:40;94938.69;;;10.94;100.00
49999;BME280;68071;45.062;7.356;2023-05-21T05:05:45;94935.47;;;10.99;100.00
49999;BME280;68071;45.062;7.356;2023-05-21T05:08:50;94940.09;;;11.05;100.00
49999;BME280;68071;45.062;7.356;2023-05-21T05:11:54;94939.50;;;10.90;100.00
49999;BME280;68071;45.062;7.356;2023-05-21T05:14:59;94945.09;;;10.87;100.00
49999;BME280;68071;45.062;7.356;2023-05-21T05:18:05;94943.41;;;11.24;100.00
49999;BME280;68071;45.062;7.356;2023-05-21T05:21:11;94932.28;;;11.00;100.00
49999;BME280;68071;45.062;7.356;2023-05-21T05:24:14;94941.44;;;10.94;100.00
49999;BME280;68071;45.062;7.356;2023-05-21T05:27:19;94941.50;;;10.90;100.00
49999;BME280;68071;45.062;7.356;2023-05-21T05:30:23;94940.25;;;10.95;100.00
49999;BME280;68071;45.062;7.356;2023-05-21T05:33:27;94934.13;;;11.11;100.00
49999;BME280;68071;45.062;7.356;2023-05-21T05:36:32;94942.03;;;11.09;100.00
49999;BME280;68071;45.062;7.356;2023-05-21T05:39:36;94940.72;;;11.17;100.00
49999;BME280;68071;45.062;7.356;2023-05-21T05:42:40;94941.97;;;11.12;100.00
49999;BME280;68071;45.062;7.356;2023-05-21T05:45:49;94950.41;;;11.05;100.00
49999;BME280;68071;45.062;7.356;2023-05-21T05:48:54;94949.19;;;11.06;100.00
49999;BME280;68071;45.062;7.356;2023-05-21T05:51:58;94954.72;;;11.06;100.00
49999;BME280;68071;45.062;7.356;2023-05-21T05:55:02;94957.00;;;11.11;100.00
49999;BME280;68071;45.062;7.356;2023-05-21T05:58:06;94950.72;;;11.11;100.00
49999;BME280;68071;45.062;7.356;2023-05-21T06:01:22;94947.13;;;11.14;100.00
49999;BME280;68071;45.062;7.356;2023-05-21T06:04:27;94946.25;;;11.17;100.00
49999;BME280;68071;45.062;7.356;2023-05-21T06:07:32;94948.56;;;11.22;100.00
49999;BME280;68071;45.062;7.356;2023-05-21T06:10:36;94939.50;;;11.22;100.00
49999;BME280;68071;45.062;7.356;2023-05-21T06:13:40;94945.44;;;11.20;100.00
49999;BME280;68071;45.062;7.356;2023-05-21T06:16:44;94949.38;;;11.23;100.00
49999;BME280;68071;45.062;7.356;2023-05-21T06:19:49;94952.44;;;11.28;100.00
49999;BME280;68071;45.062;7.356;2023-05-21T06:22:53;94959.56;;;11.26;100.00
49999;BME280;68071;45.062;7.356;2023-05-21T06:25:57;94955.16;;;11.32;100.00
49999;BME280;68071;45.062;7.356;2023-05-21T06:29:03;94964.28;;;11.29;100.00
49999;BME280;68071;45.062;7.356;2023-05-21T06:32:08;94960.81;;;11.25;100.00
49999;BME280;68071;45.062;7.356;2023-05-21T06:35:13;94968.59;;;11.30;100.00
49999;BME280;68071;45.062;7.356;2023-05-21T06:38:17;94965.44;;;11.31;100.00
49999;BME280;68071;45.062;7.356;2023-05-21T06:41:21;94960.28;;;11.33;100.00
49999;BME280;68071;45.062;7.356;2023-05-21T06:44:32;94966.94;;;11.36;100.00
49999;BME280;68071;45.062;7.356;2023-05-21T06:47:45;94961.72;;;11.42;100.00
49999;BME280;68071;45.062;7.356;2023-05-21T06:50:49;94969.09;;;11.52;100.00
49999;BME280;68071;45.062;7.356;2023-05-21T06:53:54;94963.03;;;11.61;100.00
49999;BME280;68071;45.062;7.356;2023-05-21T06:56:58;94959.41;;;11.64;100.00
49999;BME280;68071;45.062;7.356;2023-05-21T07:00:03;94967.13;;;11.76;100.00
49999;BME280;68071;45.062;7.356;2023-05-21T07:03:10;94963.09;;;11.81;100.00
49999;BME280;68071;45.062;7.356;2023-05-21T07:06:15;94970.47;;;11.91;100.00
49999;BME280;68071;45.062;7.356;2023-05-21T07:09:20;94971.28;;;11.88;100.00
49999;BME280;68071;45.062;7.356;2023-05-21T07:12:25;94960.44;;;11.98;100.00
49999;BME280;68071;45.062;7.356;2023-05-21T07:15:29;94961.97;;;12.02;100.00
49999;BME280;68071;45.062;7.356;2023-05-21T07:18:33;94960.22;;;12.12;100.00
49999;BME280;68071;45.062;7.356;2023-05-21T07:21:37;94962.31;;;12.28;100.00
49999;BME280;68071;45.062;7.356;2023-05-21T07:24:43;94963.03;;;12.32;100.00
49999;BME280;68071;45.062;7.356;2023-05-21T07:27:48;94965.38;;;12.34;100.00
49999;BME280;68071;45.062;7.356;2023-05-21T07:30:51;94960.91;;;12.40;100.00
49999;BME280;68071;45.062;7.356;2023-05-21T07:34:02;94959.22;;;12.46;100.00
49999;BME280;68071;45.062;7.356;2023-05-21T07:37:08;94969.22;;;12.60;100.00
49999;BME280;68071;45.062;7.356;2023-05-21T07:40:13;94967.47;;;12.70;100.00
49999;BME280;68071;45.062;7.356;2023-05-21T07:43:19;94959.56;;;12.89;100.00
49999;BME280;68071;45.062;7.356;2023-05-21T07:46:23;94962.56;;;12.78;100.00
49999;BME280;68071;45.062;7.356;2023-05-21T07:49:31;94962.22;;;12.76;100.00
49999;BME280;68071;45.062;7.356;2023-05-21T07:52:35;94966.03;;;12.82;100.00
49999;BME280;68071;45.062;7.356;2023-05-21T07:55:39;94968.97;;;12.75;100.00
49999;BME280;68071;45.062;7.356;2023-05-21T07:58:50;94968.53;;;12.76;100.00
49999;BME280;68071;45.062;7.356;2023-05-21T08:01:55;94969.47;;;12.69;100.00
49999;BME280;68071;45.062;7.356;2023-05-21T08:04:59;94966.91;;;12.59;100.00
49999;BME280;68071;45.062;7.356;2023-05-21T08:08:04;94973.00;;;12.50;100.00
49999;BME280;68071;45.062;7.356;2023-05-21T08:11:09;94976.50;;;12.54;100.00
49999;BME280;68071;45.062;7.356;2023-05-21T08:14:14;94971.88;;;12.47;100.00
49999;BME280;68071;45.062;7.356;2023-05-21T08:17:19;94974.41;;;12.38;100.00
49999;BME280;68071;45.062;7.356;2023-05-21T08:20:24;94975.31;;;12.31;100.00
49999;BME280;68071;45.062;7.356;2023-05-21T08:23:29;94964.00;;;12.22;100.00
49999;BME280;68071;45.062;7.356;2023-05-21T08:26:36;94967.56;;;12.22;100.00
49999;BME280;68071;45.062;7.356;2023-05-21T08:29:40;94975.59;;;12.17;100.00
49999;BME280;68071;45.062;7.356;2023-05-21T08:32:45;94979.00;;;12.24;100.00
49999;BME280;68071;45.062;7.356;2023-05-21T08:35:51;94971.91;;;12.23;100.00
49999;BME280;68071;45.062;7.356;2023-05-21T08:39:05;94980.63;;;12.22;100.00
49999;BME280;68071;45.062;7.356;2023-05-21T08:42:22;94988.09;;;12.25;100.00
49999;BME280;68071;45.062;7.356;2023-05-21T08:45:31;94991.41;;;12.16;100.00
49999;BME280;68071;45.062;7.356;2023-05-21T08:48:41;94982.81;;;12.10;100.00
49999;BME280;68071;45.062;7.356;2023-05-21T08:51:46;94985.88;;;12.16;100.00
49999;BME280;68071;45.062;7.356;2023-05-21T08:54:53;94978.28;;;12.20;100.00
49999;BME280;68071;45.062;7.356;2023-05-21T08:57:59;94991.84;;;12.15;100.00
49999;BME280;68071;45.062;7.356;2023-05-21T09:01:05;94990.88;;;12.25;100.00
49999;BME280;68071;45.062;7.356;2023-05-21T09:04:14;94994.00;;;12.27;100.00
49999;BME280;68071;45.062;7.356;2023-05-21T09:07:19;94985.75;;;12.23;100.00
49999;BME280;68071;45.062;7.356;2023-05-21T09:10:48;94989.00;;;12.18;100.00
49999;BME280;68071;45.062;7.356;2023-05-21T09:13:54;94988.25;;;12.18;100.00
49999;BME280;68071;45.062;7.356;2023-05-21T09:17:06;94983.03;;;12.20;100.00
49999;BME280;68071;45.062;7.356;2023-05-21T09:20:12;94981.53;;;12.15;100.00
49999;BME280;68071;45.062;7.356;2023-05-21T09:23:33;94987.06;;;12.15;100.00
49999;BME280;68071;45.062;7.356;2023-05-21T09:26:41;94990.69;;;12.12;100.00
49999;BME280;68071;45.062;7.356;2023-05-21T09:29:45;94980.88;;;12.07;100.00
49999;BME280;68071;45.062;7.356;2023-05-21T09:32:53;94992.75;;;12.08;100.00
49999;BME280;68071;45.062;7.356;2023-05-21T09:35:58;94989.00;;;12.18;100.00
49999;BME280;68071;45.062;7.356;2023-05-21T09:39:04;94984.75;;;12.14;100.00
49999;BME280;68071;45.062;7.356;2023-05-21T09:42:08;94984.59;;;12.21;100.00
49999;BME280;68071;45.062;7.356;2023-05-21T09:45:17;94986.13;;;12.25;100.00
49999;BME280;68071;45.062;7.356;2023-05-21T09:48:32;94979.66;;;12.32;100.00
49999;BME280;68071;45.062;7.356;2023-05-21T09:51:42;94987.91;;;12.36;100.00
49999;BME280;68071;45.062;7.356;2023-05-21T09:54:46;94992.69;;;12.35;100.00
49999;BME280;68071;45.062;7.356;2023-05-21T09:57:51;94984.94;;;12.47;100.00
49999;BME280;68071;45.062;7.356;2023-05-21T10:00:55;94984.09;;;12.50;100.00
49999;BME280;68071;45.062;7.356;2023-05-21T10:04:02;94977.56;;;12.60;100.00
49999;BME280;68071;45.062;7.356;2023-05-21T10:07:08;94977.84;;;12.86;100.00
49999;BME280;68071;45.062;7.356;2023-05-21T10:10:13;94974.72;;;12.84;100.00
49999;BME280;68071;45.062;7.356;2023-05-21T10:13:20;94980.53;;;13.10;100.00
49999;BME280;68071;45.062;7.356;2023-05-21T10:16:27;94968.78;;;13.22;100.00
49999;BME280;68071;45.062;7.356;2023-05-21T10:19:31;94979.72;;;13.29;100.00
49999;BME280;68071;45.062;7.356;2023-05-21T10:22:38;94975.19;;;13.56;100.00
49999;BME280;68071;45.062;7.356;2023-05-21T10:25:44;94966.53;;;13.70;100.00
49999;BME280;68071;45.062;7.356;2023-05-21T10:28:49;94959.34;;;13.36;100.00
49999;BME280;68071;45.062;7.356;2023-05-21T10:31:54;94971.63;;;13.19;100.00
49999;BME280;68071;45.062;7.356;2023-05-21T10:34:59;94967.91;;;13.25;100.00
49999;BME280;68071;45.062;7.356;2023-05-21T10:38:07;94962.47;;;13.38;100.00
49999;BME280;68071;45.062;7.356;2023-05-21T10:41:14;94965.91;;;13.46;100.00
49999;BME280;68071;45.062;7.356;2023-05-21T11:01:04;94965.81;;;12.93;100.00
49999;BME280;68071;45.062;7.356;2023-05-21T11:04:09;94968.38;;;13.04;100.00
49999;BME280;68071;45.062;7.356;2023-05-21T11:07:22;94974.13;;;13.13;100.00
49999;BME280;68071;45.062;7.356;2023-05-21T11:10:37;94970.97;;;13.31;100.00
49999;BME280;68071;45.062;7.356;2023-05-21T11:13:45;94964.25;;;13.49;100.00
49999;BME280;68071;45.062;7.356;2023-05-21T11:16:53;94980.31;;;13.57;100.00
49999;BME280;68071;45.062;7.356;2023-05-21T11:20:03;94979.59;;;13.53;100.00
49999;BME280;68071;45.062;7.356;2023-05-21T11:23:10;94984.59;;;13.79;100.00
49999;BME280;68071;45.062;7.356;2023-05-21T11:26:18;94984.00;;;13.71;100.00
49999;BME280;68071;45.062;7.356;2023-05-21T11:29:39;94982.06;;;13.51;100.00
49999;BME280;68071;45.062;7.356;2023-05-21T11:36:11;94992.56;;;13.40;100.00
49999;BME280;68071;45.062;7.356;2023-05-21T11:39:16;94987.97;;;13.33;100.00
49999;BME280;68071;45.062;7.356;2023-05-21T11:42:31;94989.09;;;13.36;100.00
49999;BME280;68071;45.062;7.356;2023-05-21T11:45:35;94985.34;;;13.46;100.00
49999;BME280;68071;45.062;7.356;2023-05-21T11:48:41;94983.69;;;13.49;100.00
49999;BME280;68071;45.062;7.356;2023-05-21T11:51:46;94988.84;;;13.67;100.00
49999;BME280;68071;45.062;7.356;2023-05-21T11:54:52;94982.06;;;13.84;100.00
49999;BME280;68071;45.062;7.356;2023-05-21T11:58:00;94997.63;;;13.98;100.00
49999;BME280;68071;45.062;7.356;2023-05-21T12:01:04;94989.34;;;14.11;100.00
49999;BME280;68071;45.062;7.356;2023-05-21T12:04:08;94992.47;;;14.13;100.00
49999;BME280;68071;45.062;7.356;2023-05-21T12:07:17;94987.19;;;13.86;100.00
49999;BME280;68071;45.062;7.356;2023-05-21T12:10:21;94991.16;;;13.68;100.00
49999;BME280;68071;45.062;7.356;2023-05-21T12:13:27;94992.03;;;13.65;100.00
49999;BME280;68071;45.062;7.356;2023-05-21T12:16:31;94997.44;;;13.72;100.00
49999;BME280;68071;45.062;7.356;2023-05-21T12:19:36;94992.94;;;14.12;100.00
49999;BME280;68071;45.062;7.356;2023-05-21T12:22:40;94991.63;;;14.00;100.00
49999;BME280;68071;45.062;7.356;2023-05-21T12:25:46;94986.66;;;14.07;100.00
49999;BME280;68071;45.062;7.356;2023-05-21T12:28:56;94991.72;;;14.13;100.00
49999;BME280;68071;45.062;7.356;2023-05-21T12:32:01;94996.22;;;14.06;100.00
49999;BME280;68071;45.062;7.356;2023-05-21T12:35:05;94994.22;;;14.07;100.00
49999;BME280;68071;45.062;7.356;2023-05-21T12:38:09;94999.69;;;14.11;100.00
49999;BME280;68071;45.062;7.356;2023-05-21T12:41:15;95010.00;;;14.10;100.00
49999;BME280;68071;45.062;7.356;2023-05-21T12:44:19;94998.41;;;13.99;100.00
49999;BME280;68071;45.062;7.356;2023-05-21T12:47:24;95005.56;;;14.46;100.00
49999;BME280;68071;45.062;7.356;2023-05-21T12:50:29;95005.81;;;14.51;100.00
49999;BME280;68071;45.062;7.356;2023-05-21T12:53:36;95013.72;;;14.70;100.00
49999;BME280;68071;45.062;7.356;2023-05-21T12:56:44;95010.94;;;14.53;100.00
49999;BME280;68071;45.062;7.356;2023-05-21T12:59:58;95014.00;;;14.42;100.00
49999;BME280;68071;45.062;7.356;2023-05-21T13:03:03;95011.91;;;14.46;100.00
49999;BME280;68071;45.062;7.356;2023-05-21T13:06:08;95014.69;;;14.30;100.00
49999;BME280;68071;45.062;7.356;2023-05-21T13:09:13;95010.72;;;14.14;100.00
49999;BME280;68071;45.062;7.356;2023-05-21T13:12:17;95015.25;;;14.08;100.00
49999;BME280;68071;45.062;7.356;2023-05-21T13:15:20;95013.75;;;14.03;100.00
49999;BME280;68071;45.062;7.356;2023-05-21T13:18:24;95014.72;;;14.13;100.00
49999;BME280;68071;45.062;7.356;2023-05-21T13:21:29;95016.88;;;13.89;100.00
49999;BME280;68071;45.062;7.356;2023-05-21T13:24:34;95015.47;;;13.81;100.00
49999;BME280;68071;45.062;7.356;2023-05-21T13:27:38;95006.53;;;13.73;100.00
49999;BME280;68071;45.062;7.356;2023-05-21T13:30:42;95016.38;;;13.77;100.00
49999;BME280;68071;45.062;7.356;2023-05-21T13:33:47;95005.50;;;13.83;100.00
49999;BME280;68071;45.062;7.356;2023-05-21T13:36:51;95008.66;;;14.02;100.00
49999;BME280;68071;45.062;7.356;2023-05-21T13:39:56;95006.97;;;13.88;100.00
49999;BME280;68071;45.062;7.356;2023-05-21T13:43:00;95005.88;;;14.02;100.00
49999;BME280;68071;45.062;7.356;2023-05-21T13:46:04;94999.59;;;14.14;100.00
49999;BME280;68071;45.062;7.356;2023-05-21T13:49:08;94997.59;;;14.31;100.00
49999;BME280;68071;45.062;7.356;2023-05-21T13:52:12;94999.50;;;14.34;100.00
49999;BME280;68071;45.062;7.356;2023-05-21T13:55:16;95008.06;;;14.57;100.00
49999;BME280;68071;45.062;7.356;2023-05-21T13:58:21;95004.91;;;14.71;100.00
49999;BME280;68071;45.062;7.356;2023-05-21T14:01:25;95006.66;;;14.94;100.00
49999;BME280;68071;45.062;7.356;2023-05-21T14:04:29;94999.38;;;15.13;100.00
49999;BME280;68071;45.062;7.356;2023-05-21T14:07:34;95008.63;;;15.10;100.00
49999;BME280;68071;45.062;7.356;2023-05-21T14:10:38;94995.97;;;14.93;100.00
49999;BME280;68071;45.062;7.356;2023-05-21T14:13:42;95000.97;;;14.85;100.00
49999;BME280;68071;45.062;7.356;2023-05-21T14:16:47;95005.75;;;14.85;100.00
49999;BME280;68071;45.062;7.356;2023-05-21T14:19:51;95002.72;;;14.79;100.00
49999;BME280;68071;45.062;7.356;2023-05-21T14:22:55;95012.78;;;14.89;100.00
49999;BME280;68071;45.062;7.356;2023-05-21T14:25:59;95000.38;;;14.77;100.00
49999;BME280;68071;45.062;7.356;2023-05-21T14:29:04;94998.19;;;15.27;100.00
49999;BME280;68071;45.062;7.356;2023-05-21T14:32:08;95002.09;;;14.88;100.00
49999;BME280;68071;45.062;7.356;2023-05-21T14:35:13;95008.03;;;14.73;100.00
49999;BME280;68071;45.062;7.356;2023-05-21T14:38:17;95005.84;;;14.81;100.00
49999;BME280;68071;45.062;7.356;2023-05-21T14:41:27;95012.22;;;14.81;100.00
49999;BME280;68071;45.062;7.356;2023-05-21T14:44:32;95006.13;;;15.00;100.00
49999;BME280;68071;45.062;7.356;2023-05-21T14:47:36;94998.88;;;15.32;100.00
49999;BME280;68071;45.062;7.356;2023-05-21T14:50:40;95010.59;;;15.65;100.00
49999;BME280;68071;45.062;7.356;2023-05-21T14:53:44;95006.38;;;15.73;100.00
49999;BME280;68071;45.062;7.356;2023-05-21T14:56:48;95009.13;;;15.61;100.00
49999;BME280;68071;45.062;7.356;2023-05-21T14:59:52;95006.50;;;15.96;100.00
49999;BME280;68071;45.062;7.356;2023-05-21T15:02:57;94997.66;;;15.84;100.00
49999;BME280;68071;45.062;7.356;2023-05-21T15:06:01;95003.28;;;15.97;100.00
49999;BME280;68071;45.062;7.356;2023-05-21T15:09:05;95000.00;;;16.12;100.00
49999;BME280;68071;45.062;7.356;2023-05-21T15:12:09;94995.09;;;16.16;100.00
49999;BME280;68071;45.062;7.356;2023-05-21T15:15:13;94998.00;;;16.12;100.00
49999;BME280;68071;45.062;7.356;2023-05-21T15:18:17;95002.97;;;16.43;100.00
49999;BME280;68071;45.062;7.356;2023-05-21T15:21:21;94997.75;;;16.68;100.00
49999;BME280;68071;45.062;7.356;2023-05-21T15:24:25;94999.97;;;16.73;100.00
49999;BME280;68071;45.062;7.356;2023-05-21T15:27:29;95001.50;;;17.09;100.00
49999;BME280;68071;45.062;7.356;2023-05-21T15:30:33;94997.81;;;16.77;100.00
49999;BME280;68071;45.062;7.356;2023-05-21T15:33:38;94989.44;;;16.42;100.00
49999;BME280;68071;45.062;7.356;2023-05-21T15:36:42;94989.13;;;16.40;100.00
49999;BME280;68071;45.062;7.356;2023-05-21T15:39:46;95001.03;;;16.53;100.00
49999;BME280;68071;45.062;7.356;2023-05-21T15:42:51;95001.25;;;16.59;100.00
49999;BME280;68071;45.062;7.356;2023-05-21T15:45:55;94990.41;;;16.26;100.00
49999;BME280;68071;45.062;7.356;2023-05-21T15:48:59;94988.06;;;16.59;100.00
49999;BME280;68071;45.062;7.356;2023-05-21T15:52:03;94985.69;;;16.36;100.00
49999;BME280;68071;45.062;7.356;2023-05-21T15:55:08;94979.59;;;15.63;100.00
49999;BME280;68071;45.062;7.356;2023-05-21T15:58:12;94977.81;;;15.43;100.00
49999;BME280;68071;45.062;7.356;2023-05-21T16:01:16;94974.25;;;15.30;100.00
49999;BME280;68071;45.062;7.356;2023-05-21T16:04:20;94971.34;;;15.34;100.00
49999;BME280;68071;45.062;7.356;2023-05-21T16:07:24;94975.25;;;15.36;100.00
49999;BME280;68071;45.062;7.356;2023-05-21T16:10:28;94978.50;;;15.48;100.00
49999;BME280;68071;45.062;7.356;2023-05-21T16:13:33;94972.50;;;15.49;100.00
49999;BME280;68071;45.062;7.356;2023-05-21T16:16:38;94973.03;;;15.44;100.00
49999;BME280;68071;45.062;7.356;2023-05-21T16:19:42;94965.47;;;15.70;100.00
49999;BME280;68071;45.062;7.356;2023-05-21T16:22:46;94958.22;;;15.34;100.00
49999;BME280;68071;45.062;7.356;2023-05-21T16:25:50;94964.78;;;15.53;100.00
49999;BME280;68071;45.062;7.356;2023-05-21T16:28:55;94962.13;;;15.50;100.00
49999;BME280;68071;45.062;7.356;2023-05-21T16:31:59;94955.44;;;15.47;100.00
49999;BME280;68071;45.062;7.356;2023-05-21T16:35:05;94957.34;;;15.50;100.00
49999;BME280;68071;45.062;7.356;2023-05-21T16:38:09;94949.53;;;15.58;100.00
49999;BME280;68071;45.062;7.356;2023-05-21T16:41:13;94951.41;;;15.35;100.00
49999;BME280;68071;45.062;7.356;2023-05-21T16:44:17;94949.38;;;15.23;100.00
49999;BME280;68071;45.062;7.356;2023-05-21T16:47:22;94939.47;;;15.09;100.00